San Juan Enterprise — WDD9563 — position and weather

sailwx.info

Track history (hours):
 
Tides and Currents Weather Stations Pressure Air Temp Water Temp Dewpoint Dewpoint Depression Visibility Wind Speed Wind Dir Waves Ship Positions

San Juan Enterprise

Owner: SAN JUAN MARINE FREIGHT CO LLC, ANACORTES, WA. More information available from US FCC via Universal Licensing System and Coast Guard Vessel Documentation Center.

Last reported at 2016-Jun-26 22:28 UTC. Time now 2016-Jun-26 22:45 UTC.
Position N 48°31' W 122°36'.

Length 30 m.

MMSI: 367313160.

Date/timePositionNaut miles runAvg speedWind from/ knotsBaromVisibWave heightAir tempDewpointWater temp
2016-Jun-26 22:28N 48°31' W 122°36'0 0.0
2016-Jun-26 21:28N 48°31' W 122°36'0 0.0
2016-Jun-26 20:28N 48°31' W 122°36'0 0.0
2016-Jun-26 19:28N 48°31' W 122°36'0 0.0
2016-Jun-26 18:28N 48°31' W 122°36'0 0.0
2016-Jun-26 17:28N 48°31' W 122°36'0 0.0
2016-Jun-26 16:28N 48°31' W 122°36'0 0.0
2016-Jun-26 15:28N 48°31' W 122°36'0 0.0
2016-Jun-26 14:28N 48°31' W 122°36'0 0.0
2016-Jun-26 13:28N 48°31' W 122°36'0 0.0
2016-Jun-26 12:28N 48°31' W 122°36'0 0.0
2016-Jun-26 11:28N 48°31' W 122°36'0 0.0
2016-Jun-26 10:10N 48°31' W 122°36'0 0.0
2016-Jun-26 09:28N 48°31' W 122°36'0 0.0
2016-Jun-26 08:28N 48°31' W 122°36'0 0.0
2016-Jun-26 07:28N 48°31' W 122°36'0 0.0
2016-Jun-26 06:22N 48°31' W 122°36'0 0.0
2016-Jun-26 05:28N 48°31' W 122°36'0 0.0
2016-Jun-26 04:28N 48°31' W 122°36'0 0.0
2016-Jun-26 03:28N 48°31' W 122°36'0 0.0
2016-Jun-26 02:28N 48°31' W 122°36'0 0.0
2016-Jun-26 01:28N 48°31' W 122°36'0 0.0
2016-Jun-26 00:28N 48°31' W 122°36'0 0.0
2016-Jun-25 23:22N 48°31' W 122°36'0 0.0
2016-Jun-25 22:28N 48°31' W 122°36'0 0.0
2016-Jun-25 21:28N 48°31' W 122°36'0 0.0
2016-Jun-25 20:28N 48°31' W 122°36'0 0.0
2016-Jun-25 19:22N 48°31' W 122°36'0 0.0
2016-Jun-25 18:22N 48°31' W 122°36'0 0.0
2016-Jun-25 17:28N 48°31' W 122°36'0 0.0
2016-Jun-25 16:28N 48°31' W 122°36'0 0.0
2016-Jun-25 15:28N 48°31' W 122°36'0 0.0
2016-Jun-25 14:28N 48°31' W 122°36'0 0.0
2016-Jun-25 13:28N 48°31' W 122°36'0 0.0
2016-Jun-25 12:28N 48°31' W 122°36'0 0.0
2016-Jun-25 11:28N 48°31' W 122°36'0 0.0
2016-Jun-25 10:28N 48°31' W 122°36'0 0.0
2016-Jun-25 09:28N 48°31' W 122°36'0 0.0
2016-Jun-25 08:28N 48°31' W 122°36'0 0.0
2016-Jun-25 07:28N 48°31' W 122°36'0 0.0
2016-Jun-25 06:28N 48°31' W 122°36'0 0.0
2016-Jun-25 05:28N 48°31' W 122°36'0 0.0
2016-Jun-25 04:28N 48°31' W 122°36'0 0.0
2016-Jun-25 03:28N 48°31' W 122°36'0 0.0
2016-Jun-25 02:28N 48°31' W 122°36'0 0.0
2016-Jun-25 01:28N 48°31' W 122°36'0 0.0
2016-Jun-25 00:28N 48°31' W 122°36'0 0.0
2016-Jun-24 23:28N 48°31' W 122°36'0 0.0
2016-Jun-24 22:22N 48°31' W 122°36'0 0.0
2016-Jun-24 21:28N 48°31' W 122°36'0 0.0
2016-Jun-24 20:28N 48°31' W 122°36'0 0.0
2016-Jun-24 19:28N 48°31' W 122°36'0 0.0
2016-Jun-24 18:28N 48°31' W 122°36'0 0.0
2016-Jun-24 17:28N 48°31' W 122°36'0 0.0
2016-Jun-24 16:28N 48°31' W 122°36'0 0.0
2016-Jun-24 15:28N 48°31' W 122°36'0 0.0
2016-Jun-24 14:28N 48°31' W 122°36'0 0.0
2016-Jun-24 13:22N 48°31' W 122°36'0 0.0
2016-Jun-24 12:28N 48°31' W 122°36'0 0.0
2016-Jun-24 11:28N 48°31' W 122°36'0 0.0
2016-Jun-24 10:28N 48°31' W 122°36'0 0.0
2016-Jun-24 09:22N 48°31' W 122°36'0 0.0
2016-Jun-24 08:28N 48°31' W 122°36'0 0.0
2016-Jun-24 07:28N 48°31' W 122°36'0 0.0
2016-Jun-24 04:28N 48°31' W 122°36'0 0.0
2016-Jun-24 03:28N 48°31' W 122°36'0 0.0
2016-Jun-24 02:22N 48°31' W 122°36'0 0.0
2016-Jun-24 01:28N 48°31' W 122°36'0 0.0
2016-Jun-24 00:28N 48°31' W 122°36'0 0.0
2016-Jun-23 23:28N 48°31' W 122°36'0 0.0
2016-Jun-23 22:28N 48°31' W 122°36'0 0.0
2016-Jun-23 21:33N 48°31' W 122°36'4 3.9
2016-Jun-23 20:33N 48°32' W 122°42'8 8.3
2016-Jun-23 19:33N 48°34' W 122°54'4 4.2
2016-Jun-23 18:33N 48°32' W 122°60'0 0.0
2016-Jun-23 17:33N 48°32' W 122°60'5 5.3
2016-Jun-23 16:33N 48°34' W 122°53'9 8.5
2016-Jun-23 15:33N 48°32' W 122°41'3 3.0
2016-Jun-23 14:33N 48°31' W 122°36'0 0.0
2016-Jun-23 13:27N 48°31' W 122°36'0 0.0
2016-Jun-23 12:33N 48°31' W 122°36'0 0.0
2016-Jun-23 11:33N 48°31' W 122°36'0 0.0
2016-Jun-23 10:33N 48°31' W 122°36'0 0.0
2016-Jun-23 09:33N 48°31' W 122°36'0 0.0
2016-Jun-23 08:33N 48°31' W 122°36'0 0.0
2016-Jun-23 07:33N 48°31' W 122°36'0 0.0
2016-Jun-23 05:33N 48°31' W 122°36'0 0.0
2016-Jun-23 04:33N 48°31' W 122°36'0 0.0
2016-Jun-23 03:33N 48°31' W 122°36'0 0.0
2016-Jun-23 02:33N 48°31' W 122°36'0 0.0
2016-Jun-23 01:27N 48°31' W 122°36'0 0.0
2016-Jun-23 00:33N 48°31' W 122°36'0 0.1
2016-Jun-22 23:34N 48°31' W 122°37'4 3.9
2016-Jun-22 22:33N 48°30' W 122°42'6 1.8
2016-Jun-22 19:23N 48°25' W 122°40'6 7.4
2016-Jun-22 18:33N 48°31' W 122°41'2 2.5
2016-Jun-22 17:33N 48°31' W 122°37'0 0.3
2016-Jun-22 16:26N 48°31' W 122°36'0 0.0
2016-Jun-22 15:32N 48°31' W 122°36'0 0.0
2016-Jun-22 14:20N 48°31' W 122°36'0 0.0
2016-Jun-22 13:32N 48°31' W 122°36'0 0.0
2016-Jun-22 12:26N 48°31' W 122°36'0 0.0
2016-Jun-22 11:32N 48°31' W 122°36'0 0.0
2016-Jun-22 10:20N 48°31' W 122°36'0 0.0
2016-Jun-22 09:32N 48°31' W 122°36'0 0.0
2016-Jun-22 08:32N 48°31' W 122°36'0 0.0
2016-Jun-22 07:26N 48°31' W 122°36'0 0.0
2016-Jun-22 06:32N 48°31' W 122°36'0 0.0
2016-Jun-22 05:32N 48°31' W 122°36'5 5.0
2016-Jun-22 04:33N 48°31' W 122°44'7 7.4
2016-Jun-22 03:33N 48°35' W 122°54'9 9.1
2016-Jun-22 02:33N 48°37' W 123°07'2 2.0
2016-Jun-22 01:33N 48°36' W 123°09'2 1.7
2016-Jun-22 00:33N 48°37' W 123°07'9 9.2
2016-Jun-21 23:33N 48°35' W 122°54'9 8.9
2016-Jun-21 22:33N 48°31' W 122°42'4 3.9
2016-Jun-21 21:30N 48°31' W 122°36'0 0.0
2016-Jun-21 20:30N 48°31' W 122°36'0 0.0
2016-Jun-21 19:30N 48°31' W 122°36'0 0.0
2016-Jun-21 18:28N 48°31' W 122°36'0 0.0
2016-Jun-21 17:28N 48°31' W 122°36'0 0.0
2016-Jun-21 16:28N 48°31' W 122°36'0 0.0
2016-Jun-21 15:28N 48°31' W 122°36'0 0.0
2016-Jun-21 14:28N 48°31' W 122°36'0 0.0
2016-Jun-21 13:28N 48°31' W 122°36'0 0.0
2016-Jun-21 12:28N 48°31' W 122°36'0 0.0
2016-Jun-21 11:22N 48°31' W 122°36'0 0.0
2016-Jun-21 10:28N 48°31' W 122°36'0 0.0
2016-Jun-21 09:28N 48°31' W 122°36'0 0.0
2016-Jun-21 08:28N 48°31' W 122°36'0 0.0
2016-Jun-21 07:28N 48°31' W 122°36'0 0.0
2016-Jun-21 06:28N 48°31' W 122°36'0 0.0
2016-Jun-21 04:31N 48°31' W 122°36'6 5.8
2016-Jun-21 03:33N 48°31' W 122°45'9 9.5
2016-Jun-21 02:33N 48°36' W 122°57'8 8.0
2016-Jun-21 01:33N 48°36' W 123°09'4 3.7
2016-Jun-21 00:32N 48°37' W 123°04'9 9.4
2016-Jun-20 23:33N 48°33' W 122°51'9 8.5
2016-Jun-20 22:33N 48°31' W 122°38'1 1.1
2016-Jun-20 21:32N 48°31' W 122°36'0 0.0
2016-Jun-20 20:32N 48°31' W 122°36'0 0.0
2016-Jun-20 19:31N 48°31' W 122°36'0 0.0
2016-Jun-20 18:19N 48°31' W 122°36'0 0.0
2016-Jun-20 17:31N 48°31' W 122°36'0 0.0
2016-Jun-20 16:28N 48°31' W 122°36'0 0.0
2016-Jun-20 15:28N 48°31' W 122°36'0 0.0
2016-Jun-20 14:28N 48°31' W 122°36'0 0.0
2016-Jun-20 13:28N 48°31' W 122°36'0 0.0
2016-Jun-20 12:28N 48°31' W 122°36'0 0.0
2016-Jun-20 11:28N 48°31' W 122°36'0 0.0
2016-Jun-20 10:28N 48°31' W 122°36'0 0.0
2016-Jun-20 09:28N 48°31' W 122°36'0 0.0
2016-Jun-20 08:28N 48°31' W 122°36'0 0.0
2016-Jun-20 07:28N 48°31' W 122°36'0 0.0
2016-Jun-20 06:28N 48°31' W 122°36'0 0.0
2016-Jun-20 05:28N 48°31' W 122°36'0 0.0
2016-Jun-20 04:22N 48°31' W 122°36'0 0.0
2016-Jun-20 03:28N 48°31' W 122°36'0 0.0
2016-Jun-20 02:28N 48°31' W 122°36'0 0.0
2016-Jun-20 01:28N 48°31' W 122°36'0 0.0
2016-Jun-20 00:28N 48°31' W 122°36'0 0.0
2016-Jun-19 23:28N 48°31' W 122°36'0 0.0
2016-Jun-19 22:28N 48°31' W 122°36'0 0.0
2016-Jun-19 21:28N 48°31' W 122°36'0 0.0
2016-Jun-19 20:28N 48°31' W 122°36'0 0.0
2016-Jun-19 19:28N 48°31' W 122°36'0 0.0
2016-Jun-19 18:28N 48°31' W 122°36'0 0.0
2016-Jun-19 17:28N 48°31' W 122°36'0 0.0
2016-Jun-19 16:28N 48°31' W 122°36'0 0.0
2016-Jun-19 15:28N 48°31' W 122°36'0 0.0
2016-Jun-19 14:28N 48°31' W 122°36'0 0.0
2016-Jun-19 13:28N 48°31' W 122°36'0 0.0
2016-Jun-19 12:28N 48°31' W 122°36'0 0.0
2016-Jun-19 11:28N 48°31' W 122°36'0 0.0
2016-Jun-19 10:28N 48°31' W 122°36'0 0.0
2016-Jun-19 09:28N 48°31' W 122°36'0 0.0
2016-Jun-19 08:28N 48°31' W 122°36'0 0.0
2016-Jun-19 07:28N 48°31' W 122°36'0 0.0
2016-Jun-19 06:28N 48°31' W 122°36'0 0.0
2016-Jun-19 05:28N 48°31' W 122°36'0 0.0
2016-Jun-19 04:28N 48°31' W 122°36'0 0.0
2016-Jun-19 03:28N 48°31' W 122°36'0 0.0
2016-Jun-19 02:28N 48°31' W 122°36'0 0.0
2016-Jun-19 01:28N 48°31' W 122°36'0 0.0
2016-Jun-19 00:28N 48°31' W 122°36'0 0.0
2016-Jun-18 23:28N 48°31' W 122°36'0 0.0
2016-Jun-18 22:28N 48°31' W 122°36'0 0.0
2016-Jun-18 21:28N 48°31' W 122°36'0 0.0
2016-Jun-18 20:28N 48°31' W 122°36'0 0.0
2016-Jun-18 19:28N 48°31' W 122°36'0 0.0
2016-Jun-18 18:28N 48°31' W 122°36'0 0.0
2016-Jun-18 17:28N 48°31' W 122°36'0 0.0
2016-Jun-18 16:28N 48°31' W 122°36'0 0.0
2016-Jun-18 15:28N 48°31' W 122°36'0 0.0
2016-Jun-18 14:28N 48°31' W 122°36'0 0.0
2016-Jun-18 13:28N 48°31' W 122°36'0 0.0
2016-Jun-18 12:28N 48°31' W 122°36'0 0.0
2016-Jun-18 11:28N 48°31' W 122°36'0 0.0
2016-Jun-18 10:28N 48°31' W 122°36'0 0.0
2016-Jun-18 09:22N 48°31' W 122°36'0 0.0
2016-Jun-18 08:28N 48°31' W 122°36'0 0.0
2016-Jun-18 07:28N 48°31' W 122°36'0 0.0
2016-Jun-18 06:28N 48°31' W 122°36'0 0.0
2016-Jun-18 05:28N 48°31' W 122°36'0 0.0
2016-Jun-18 04:22N 48°31' W 122°36'0 0.0
2016-Jun-18 03:28N 48°31' W 122°36'0 0.0
2016-Jun-18 02:28N 48°31' W 122°36'0 0.0
2016-Jun-18 01:28N 48°31' W 122°36'0 0.0
2016-Jun-18 00:28N 48°31' W 122°36'0 0.0
2016-Jun-17 23:28N 48°31' W 122°36'0 0.1
2016-Jun-17 22:34N 48°31' W 122°36'7 7.1
2016-Jun-17 21:34N 48°34' W 122°46'3 3.1
2016-Jun-17 20:34N 48°36' W 122°49'5 4.8
2016-Jun-17 19:34N 48°33' W 122°44'5 5.4
2016-Jun-17 18:33N 48°31' W 122°36'0 0.0
2016-Jun-17 17:33N 48°31' W 122°36'0 0.0
2016-Jun-17 16:33N 48°31' W 122°36'0 0.0
2016-Jun-17 15:33N 48°31' W 122°36'0 0.0
2016-Jun-17 14:33N 48°31' W 122°36'0 0.0
2016-Jun-17 13:33N 48°31' W 122°36'0 0.0
2016-Jun-17 12:33N 48°31' W 122°36'0 0.0
2016-Jun-17 11:33N 48°31' W 122°36'0 0.0
2016-Jun-17 10:33N 48°31' W 122°36'0 0.0
2016-Jun-17 09:33N 48°31' W 122°36'0 0.0
2016-Jun-17 08:27N 48°31' W 122°36'0 0.0
2016-Jun-17 07:33N 48°31' W 122°36'0 0.0
2016-Jun-17 06:33N 48°31' W 122°36'0 0.0
2016-Jun-17 05:33N 48°31' W 122°36'0 0.0
2016-Jun-17 04:33N 48°31' W 122°36'0 0.0
2016-Jun-17 03:33N 48°31' W 122°36'0 0.0
2016-Jun-17 02:33N 48°31' W 122°36'0 0.0
2016-Jun-17 01:33N 48°31' W 122°36'0 0.0
2016-Jun-17 00:33N 48°31' W 122°36'0 0.0
2016-Jun-16 23:33N 48°31' W 122°36'0 0.0
2016-Jun-16 22:31N 48°31' W 122°36'  
Track history (hours):
 
Tides and Currents Weather Stations Pressure Air Temp Water Temp Dewpoint Dewpoint Depression Visibility Wind Speed Wind Dir Waves Ship Positions

San Juan Enterprise

Owner: SAN JUAN MARINE FREIGHT CO LLC, ANACORTES, WA. More information available from US FCC via Universal Licensing System and Coast Guard Vessel Documentation Center.

Last reported at 2016-Jun-26 22:28 UTC. Time now 2016-Jun-26 22:45 UTC.
Position N 48°31' W 122°36'.

Length 30 m.

MMSI: 367313160.

Date/timePositionNaut miles runAvg speedWind from/ knotsBaromVisibWave heightAir tempDewpointWater temp
2016-Jun-26 22:28N 48°31' W 122°36'0 0.0
2016-Jun-26 21:28N 48°31' W 122°36'0 0.0
2016-Jun-26 20:28N 48°31' W 122°36'0 0.0
2016-Jun-26 19:28N 48°31' W 122°36'0 0.0
2016-Jun-26 18:28N 48°31' W 122°36'0 0.0
2016-Jun-26 17:28N 48°31' W 122°36'0 0.0
2016-Jun-26 16:28N 48°31' W 122°36'0 0.0
2016-Jun-26 15:28N 48°31' W 122°36'0 0.0
2016-Jun-26 14:28N 48°31' W 122°36'0 0.0
2016-Jun-26 13:28N 48°31' W 122°36'0 0.0
2016-Jun-26 12:28N 48°31' W 122°36'0 0.0
2016-Jun-26 11:28N 48°31' W 122°36'0 0.0
2016-Jun-26 10:10N 48°31' W 122°36'0 0.0
2016-Jun-26 09:28N 48°31' W 122°36'0 0.0
2016-Jun-26 08:28N 48°31' W 122°36'0 0.0
2016-Jun-26 07:28N 48°31' W 122°36'0 0.0
2016-Jun-26 06:22N 48°31' W 122°36'0 0.0
2016-Jun-26 05:28N 48°31' W 122°36'0 0.0
2016-Jun-26 04:28N 48°31' W 122°36'0 0.0
2016-Jun-26 03:28N 48°31' W 122°36'0 0.0
2016-Jun-26 02:28N 48°31' W 122°36'0 0.0
2016-Jun-26 01:28N 48°31' W 122°36'0 0.0
2016-Jun-26 00:28N 48°31' W 122°36'0 0.0
2016-Jun-25 23:22N 48°31' W 122°36'0 0.0
2016-Jun-25 22:28N 48°31' W 122°36'0 0.0
2016-Jun-25 21:28N 48°31' W 122°36'0 0.0
2016-Jun-25 20:28N 48°31' W 122°36'0 0.0
2016-Jun-25 19:22N 48°31' W 122°36'0 0.0
2016-Jun-25 18:22N 48°31' W 122°36'0 0.0
2016-Jun-25 17:28N 48°31' W 122°36'0 0.0
2016-Jun-25 16:28N 48°31' W 122°36'0 0.0
2016-Jun-25 15:28N 48°31' W 122°36'0 0.0
2016-Jun-25 14:28N 48°31' W 122°36'0 0.0
2016-Jun-25 13:28N 48°31' W 122°36'0 0.0
2016-Jun-25 12:28N 48°31' W 122°36'0 0.0
2016-Jun-25 11:28N 48°31' W 122°36'0 0.0
2016-Jun-25 10:28N 48°31' W 122°36'0 0.0
2016-Jun-25 09:28N 48°31' W 122°36'0 0.0
2016-Jun-25 08:28N 48°31' W 122°36'0 0.0
2016-Jun-25 07:28N 48°31' W 122°36'0 0.0
2016-Jun-25 06:28N 48°31' W 122°36'0 0.0
2016-Jun-25 05:28N 48°31' W 122°36'0 0.0
2016-Jun-25 04:28N 48°31' W 122°36'0 0.0
2016-Jun-25 03:28N 48°31' W 122°36'0 0.0
2016-Jun-25 02:28N 48°31' W 122°36'0 0.0
2016-Jun-25 01:28N 48°31' W 122°36'0 0.0
2016-Jun-25 00:28N 48°31' W 122°36'0 0.0
2016-Jun-24 23:28N 48°31' W 122°36'0 0.0
2016-Jun-24 22:22N 48°31' W 122°36'0 0.0
2016-Jun-24 21:28N 48°31' W 122°36'0 0.0
2016-Jun-24 20:28N 48°31' W 122°36'0 0.0
2016-Jun-24 19:28N 48°31' W 122°36'0 0.0
2016-Jun-24 18:28N 48°31' W 122°36'0 0.0
2016-Jun-24 17:28N 48°31' W 122°36'0 0.0
2016-Jun-24 16:28N 48°31' W 122°36'0 0.0
2016-Jun-24 15:28N 48°31' W 122°36'0 0.0
2016-Jun-24 14:28N 48°31' W 122°36'0 0.0
2016-Jun-24 13:22N 48°31' W 122°36'0 0.0
2016-Jun-24 12:28N 48°31' W 122°36'0 0.0
2016-Jun-24 11:28N 48°31' W 122°36'0 0.0
2016-Jun-24 10:28N 48°31' W 122°36'0 0.0
2016-Jun-24 09:22N 48°31' W 122°36'0 0.0
2016-Jun-24 08:28N 48°31' W 122°36'0 0.0
2016-Jun-24 07:28N 48°31' W 122°36'0 0.0
2016-Jun-24 04:28N 48°31' W 122°36'0 0.0
2016-Jun-24 03:28N 48°31' W 122°36'0 0.0
2016-Jun-24 02:22N 48°31' W 122°36'0 0.0
2016-Jun-24 01:28N 48°31' W 122°36'0 0.0
2016-Jun-24 00:28N 48°31' W 122°36'0 0.0
2016-Jun-23 23:28N 48°31' W 122°36'0 0.0
2016-Jun-23 22:28N 48°31' W 122°36'0 0.0
2016-Jun-23 21:33N 48°31' W 122°36'4 3.9
2016-Jun-23 20:33N 48°32' W 122°42'8 8.3
2016-Jun-23 19:33N 48°34' W 122°54'4 4.2
2016-Jun-23 18:33N 48°32' W 122°60'0 0.0
2016-Jun-23 17:33N 48°32' W 122°60'5 5.3
2016-Jun-23 16:33N 48°34' W 122°53'9 8.5
2016-Jun-23 15:33N 48°32' W 122°41'3 3.0
2016-Jun-23 14:33N 48°31' W 122°36'0 0.0
2016-Jun-23 13:27N 48°31' W 122°36'0 0.0
2016-Jun-23 12:33N 48°31' W 122°36'0 0.0
2016-Jun-23 11:33N 48°31' W 122°36'0 0.0
2016-Jun-23 10:33N 48°31' W 122°36'0 0.0
2016-Jun-23 09:33N 48°31' W 122°36'0 0.0
2016-Jun-23 08:33N 48°31' W 122°36'0 0.0
2016-Jun-23 07:33N 48°31' W 122°36'0 0.0
2016-Jun-23 05:33N 48°31' W 122°36'0 0.0
2016-Jun-23 04:33N 48°31' W 122°36'0 0.0
2016-Jun-23 03:33N 48°31' W 122°36'0 0.0
2016-Jun-23 02:33N 48°31' W 122°36'0 0.0
2016-Jun-23 01:27N 48°31' W 122°36'0 0.0
2016-Jun-23 00:33N 48°31' W 122°36'0 0.1
2016-Jun-22 23:34N 48°31' W 122°37'4 3.9
2016-Jun-22 22:33N 48°30' W 122°42'6 1.8
2016-Jun-22 19:23N 48°25' W 122°40'6 7.4
2016-Jun-22 18:33N 48°31' W 122°41'2 2.5
2016-Jun-22 17:33N 48°31' W 122°37'0 0.3
2016-Jun-22 16:26N 48°31' W 122°36'0 0.0
2016-Jun-22 15:32N 48°31' W 122°36'0 0.0
2016-Jun-22 14:20N 48°31' W 122°36'0 0.0
2016-Jun-22 13:32N 48°31' W 122°36'0 0.0
2016-Jun-22 12:26N 48°31' W 122°36'0 0.0
2016-Jun-22 11:32N 48°31' W 122°36'0 0.0
2016-Jun-22 10:20N 48°31' W 122°36'0 0.0
2016-Jun-22 09:32N 48°31' W 122°36'0 0.0
2016-Jun-22 08:32N 48°31' W 122°36'0 0.0
2016-Jun-22 07:26N 48°31' W 122°36'0 0.0
2016-Jun-22 06:32N 48°31' W 122°36'0 0.0
2016-Jun-22 05:32N 48°31' W 122°36'5 5.0
2016-Jun-22 04:33N 48°31' W 122°44'7 7.4
2016-Jun-22 03:33N 48°35' W 122°54'9 9.1
2016-Jun-22 02:33N 48°37' W 123°07'2 2.0
2016-Jun-22 01:33N 48°36' W 123°09'2 1.7
2016-Jun-22 00:33N 48°37' W 123°07'9 9.2
2016-Jun-21 23:33N 48°35' W 122°54'9 8.9
2016-Jun-21 22:33N 48°31' W 122°42'4 3.9
2016-Jun-21 21:30N 48°31' W 122°36'0 0.0
2016-Jun-21 20:30N 48°31' W 122°36'0 0.0
2016-Jun-21 19:30N 48°31' W 122°36'0 0.0
2016-Jun-21 18:28N 48°31' W 122°36'0 0.0
2016-Jun-21 17:28N 48°31' W 122°36'0 0.0
2016-Jun-21 16:28N 48°31' W 122°36'0 0.0
2016-Jun-21 15:28N 48°31' W 122°36'0 0.0
2016-Jun-21 14:28N 48°31' W 122°36'0 0.0
2016-Jun-21 13:28N 48°31' W 122°36'0 0.0
2016-Jun-21 12:28N 48°31' W 122°36'0 0.0
2016-Jun-21 11:22N 48°31' W 122°36'0 0.0
2016-Jun-21 10:28N 48°31' W 122°36'0 0.0
2016-Jun-21 09:28N 48°31' W 122°36'0 0.0
2016-Jun-21 08:28N 48°31' W 122°36'0 0.0
2016-Jun-21 07:28N 48°31' W 122°36'0 0.0
2016-Jun-21 06:28N 48°31' W 122°36'0 0.0
2016-Jun-21 04:31N 48°31' W 122°36'6 5.8
2016-Jun-21 03:33N 48°31' W 122°45'9 9.5
2016-Jun-21 02:33N 48°36' W 122°57'8 8.0
2016-Jun-21 01:33N 48°36' W 123°09'4 3.7
2016-Jun-21 00:32N 48°37' W 123°04'9 9.4
2016-Jun-20 23:33N 48°33' W 122°51'9 8.5
2016-Jun-20 22:33N 48°31' W 122°38'1 1.1
2016-Jun-20 21:32N 48°31' W 122°36'0 0.0
2016-Jun-20 20:32N 48°31' W 122°36'0 0.0
2016-Jun-20 19:31N 48°31' W 122°36'0 0.0
2016-Jun-20 18:19N 48°31' W 122°36'0 0.0
2016-Jun-20 17:31N 48°31' W 122°36'0 0.0
2016-Jun-20 16:28N 48°31' W 122°36'0 0.0
2016-Jun-20 15:28N 48°31' W 122°36'0 0.0
2016-Jun-20 14:28N 48°31' W 122°36'0 0.0
2016-Jun-20 13:28N 48°31' W 122°36'0 0.0
2016-Jun-20 12:28N 48°31' W 122°36'0 0.0
2016-Jun-20 11:28N 48°31' W 122°36'0 0.0
2016-Jun-20 10:28N 48°31' W 122°36'0 0.0
2016-Jun-20 09:28N 48°31' W 122°36'0 0.0
2016-Jun-20 08:28N 48°31' W 122°36'0 0.0
2016-Jun-20 07:28N 48°31' W 122°36'0 0.0
2016-Jun-20 06:28N 48°31' W 122°36'0 0.0
2016-Jun-20 05:28N 48°31' W 122°36'0 0.0
2016-Jun-20 04:22N 48°31' W 122°36'0 0.0
2016-Jun-20 03:28N 48°31' W 122°36'0 0.0
2016-Jun-20 02:28N 48°31' W 122°36'0 0.0
2016-Jun-20 01:28N 48°31' W 122°36'0 0.0
2016-Jun-20 00:28N 48°31' W 122°36'0 0.0
2016-Jun-19 23:28N 48°31' W 122°36'0 0.0
2016-Jun-19 22:28N 48°31' W 122°36'0 0.0
2016-Jun-19 21:28N 48°31' W 122°36'0 0.0
2016-Jun-19 20:28N 48°31' W 122°36'0 0.0
2016-Jun-19 19:28N 48°31' W 122°36'0 0.0
2016-Jun-19 18:28N 48°31' W 122°36'0 0.0
2016-Jun-19 17:28N 48°31' W 122°36'0 0.0
2016-Jun-19 16:28N 48°31' W 122°36'0 0.0
2016-Jun-19 15:28N 48°31' W 122°36'0 0.0
2016-Jun-19 14:28N 48°31' W 122°36'0 0.0
2016-Jun-19 13:28N 48°31' W 122°36'0 0.0
2016-Jun-19 12:28N 48°31' W 122°36'0 0.0
2016-Jun-19 11:28N 48°31' W 122°36'0 0.0
2016-Jun-19 10:28N 48°31' W 122°36'0 0.0
2016-Jun-19 09:28N 48°31' W 122°36'0 0.0
2016-Jun-19 08:28N 48°31' W 122°36'0 0.0
2016-Jun-19 07:28N 48°31' W 122°36'0 0.0
2016-Jun-19 06:28N 48°31' W 122°36'0 0.0
2016-Jun-19 05:28N 48°31' W 122°36'0 0.0
2016-Jun-19 04:28N 48°31' W 122°36'0 0.0
2016-Jun-19 03:28N 48°31' W 122°36'0 0.0
2016-Jun-19 02:28N 48°31' W 122°36'0 0.0
2016-Jun-19 01:28N 48°31' W 122°36'0 0.0
2016-Jun-19 00:28N 48°31' W 122°36'0 0.0
2016-Jun-18 23:28N 48°31' W 122°36'0 0.0
2016-Jun-18 22:28N 48°31' W 122°36'0 0.0
2016-Jun-18 21:28N 48°31' W 122°36'0 0.0
2016-Jun-18 20:28N 48°31' W 122°36'0 0.0
2016-Jun-18 19:28N 48°31' W 122°36'0 0.0
2016-Jun-18 18:28N 48°31' W 122°36'0 0.0
2016-Jun-18 17:28N 48°31' W 122°36'0 0.0
2016-Jun-18 16:28N 48°31' W 122°36'0 0.0
2016-Jun-18 15:28N 48°31' W 122°36'0 0.0
2016-Jun-18 14:28N 48°31' W 122°36'0 0.0
2016-Jun-18 13:28N 48°31' W 122°36'0 0.0
2016-Jun-18 12:28N 48°31' W 122°36'0 0.0
2016-Jun-18 11:28N 48°31' W 122°36'0 0.0
2016-Jun-18 10:28N 48°31' W 122°36'0 0.0
2016-Jun-18 09:22N 48°31' W 122°36'0 0.0
2016-Jun-18 08:28N 48°31' W 122°36'0 0.0
2016-Jun-18 07:28N 48°31' W 122°36'0 0.0
2016-Jun-18 06:28N 48°31' W 122°36'0 0.0
2016-Jun-18 05:28N 48°31' W 122°36'0 0.0
2016-Jun-18 04:22N 48°31' W 122°36'0 0.0
2016-Jun-18 03:28N 48°31' W 122°36'0 0.0
2016-Jun-18 02:28N 48°31' W 122°36'0 0.0
2016-Jun-18 01:28N 48°31' W 122°36'0 0.0
2016-Jun-18 00:28N 48°31' W 122°36'0 0.0
2016-Jun-17 23:28N 48°31' W 122°36'0 0.1
2016-Jun-17 22:34N 48°31' W 122°36'7 7.1
2016-Jun-17 21:34N 48°34' W 122°46'3 3.1
2016-Jun-17 20:34N 48°36' W 122°49'5 4.8
2016-Jun-17 19:34N 48°33' W 122°44'5 5.4
2016-Jun-17 18:33N 48°31' W 122°36'0 0.0
2016-Jun-17 17:33N 48°31' W 122°36'0 0.0
2016-Jun-17 16:33N 48°31' W 122°36'0 0.0
2016-Jun-17 15:33N 48°31' W 122°36'0 0.0
2016-Jun-17 14:33N 48°31' W 122°36'0 0.0
2016-Jun-17 13:33N 48°31' W 122°36'0 0.0
2016-Jun-17 12:33N 48°31' W 122°36'0 0.0
2016-Jun-17 11:33N 48°31' W 122°36'0 0.0
2016-Jun-17 10:33N 48°31' W 122°36'0 0.0
2016-Jun-17 09:33N 48°31' W 122°36'0 0.0
2016-Jun-17 08:27N 48°31' W 122°36'0 0.0
2016-Jun-17 07:33N 48°31' W 122°36'0 0.0
2016-Jun-17 06:33N 48°31' W 122°36'0 0.0
2016-Jun-17 05:33N 48°31' W 122°36'0 0.0
2016-Jun-17 04:33N 48°31' W 122°36'0 0.0
2016-Jun-17 03:33N 48°31' W 122°36'0 0.0
2016-Jun-17 02:33N 48°31' W 122°36'0 0.0
2016-Jun-17 01:33N 48°31' W 122°36'0 0.0
2016-Jun-17 00:33N 48°31' W 122°36'0 0.0
2016-Jun-16 23:33N 48°31' W 122°36'0 0.0
2016-Jun-16 22:31N 48°31' W 122°36'  

Dump ship's entire track history